SBOSBO SEA / KSEA
Speedbird OnlineSpeedbird Online SEA / KSEA

Seattle Tacoma International Airport
05:07 -0.7°C

Location Seattle, United States
Latitude: 47.449001
Longitude: -122.308998
Web Airport Website | Wikipedia
Altitude 132 Meter / 433 Feet
Distance 7,723 KM / 4,799 Miles
from London.
Time Zone UTC -8 hours (America/Los_Angeles)
Codes IATA: SEA
ICAO: KSEA
Currency £1 equals USD 1.24
Runways
RunwayLength (m)Surface
16C2873CONC-F
16L3627Asphalt
16R2873Concrete
34C2873CONC-F
34L2873Concrete
34R3627Asphalt
high0
lower0
Radio
TypeDescriptionFrequency
A/DAPP/DEP119.2
CLDCLNC DEL128
CTAFOshosh traffic118.5
D-ATISDigital ATIS118
GNDSeattle Ground121.7
TWRSeattle Tower119.9
UNICUNICOM122.95
Live ATC
METAR KSEA 311253Z 16003KT 10SM OVC110 00/M06 A3027 RMK AO2 SLP262 T00001061
TAF KSEA 311139Z 3112/0118 14004KT P6SM OVC070 FM311300 12005KT P6SM OVC050 FM312100 18005KT P6SM SCT050 BKN250 FM010300 14004KT P6SM SCT150 BKN250
Weather As Of 31 Jan 2023 05:07
Description Overcast clouds
Wind 6 km/h from South (160°)
Cloud Cover 100%
Precipitation Rain: none, Snow: none
Sunrise 07:36
Sunset 17:08
Lounges Alaska Lounge, Main Terminal
Alaska Lounge, Main Terminal
Alaska Lounge, North Satellite
British Airways Lounge (Open), South Satellite
Rotations During the last 90 days there were
85 flights from LHR
85 flights to LHR



Support Speedbird Online

© 2017-2023 Speedbird Online